sensor_id;sensor_type;location;lat;lon;timestamp;P1;durP1;ratioP1;P2;durP2;ratioP2
29500;SDS011;16450;50.288;10.966;2023-07-30T00:00:18;5.17;;;3.87;;
29500;SDS011;16450;50.288;10.966;2023-07-30T00:03:20;5.17;;;3.77;;
29500;SDS011;16450;50.288;10.966;2023-07-30T00:06:22;6.43;;;3.70;;
29500;SDS011;16450;50.288;10.966;2023-07-30T00:09:24;8.07;;;4.03;;
29500;SDS011;16450;50.288;10.966;2023-07-30T00:12:26;6.37;;;3.73;;
29500;SDS011;16450;50.288;10.966;2023-07-30T00:15:28;7.13;;;3.57;;
29500;SDS011;16450;50.288;10.966;2023-07-30T00:18:30;6.70;;;3.57;;
29500;SDS011;16450;50.288;10.966;2023-07-30T00:21:32;4.67;;;3.27;;
29500;SDS011;16450;50.288;10.966;2023-07-30T00:24:34;3.93;;;3.40;;
29500;SDS011;16450;50.288;10.966;2023-07-30T00:27:38;4.73;;;3.07;;
29500;SDS011;16450;50.288;10.966;2023-07-30T00:30:40;4.67;;;3.13;;
29500;SDS011;16450;50.288;10.966;2023-07-30T00:33:42;4.40;;;3.40;;
29500;SDS011;16450;50.288;10.966;2023-07-30T00:36:44;3.93;;;3.20;;
29500;SDS011;16450;50.288;10.966;2023-07-30T00:39:46;7.97;;;3.10;;
29500;SDS011;16450;50.288;10.966;2023-07-30T00:42:48;6.37;;;3.20;;
29500;SDS011;16450;50.288;10.966;2023-07-30T00:45:50;5.00;;;3.33;;
29500;SDS011;16450;50.288;10.966;2023-07-30T00:48:52;5.93;;;3.37;;
29500;SDS011;16450;50.288;10.966;2023-07-30T00:51:53;5.87;;;3.47;;
29500;SDS011;16450;50.288;10.966;2023-07-30T00:54:57;4.97;;;3.23;;
29500;SDS011;16450;50.288;10.966;2023-07-30T00:58:05;6.57;;;3.70;;
29500;SDS011;16450;50.288;10.966;2023-07-30T01:01:07;3.10;;;2.80;;
29500;SDS011;16450;50.288;10.966;2023-07-30T01:04:09;4.70;;;3.30;;
29500;SDS011;16450;50.288;10.966;2023-07-30T01:07:12;3.80;;;3.40;;
29500;SDS011;16450;50.288;10.966;2023-07-30T01:10:14;5.20;;;2.93;;
29500;SDS011;16450;50.288;10.966;2023-07-30T01:13:17;6.30;;;3.33;;
29500;SDS011;16450;50.288;10.966;2023-07-30T01:16:19;6.33;;;3.10;;
29500;SDS011;16450;50.288;10.966;2023-07-30T01:19:21;4.67;;;3.40;;
29500;SDS011;16450;50.288;10.966;2023-07-30T01:22:23;4.03;;;3.10;;
29500;SDS011;16450;50.288;10.966;2023-07-30T01:25:27;4.63;;;3.33;;
29500;SDS011;16450;50.288;10.966;2023-07-30T01:28:31;10.47;;;3.23;;
29500;SDS011;16450;50.288;10.966;2023-07-30T01:31:39;6.53;;;3.53;;
29500;SDS011;16450;50.288;10.966;2023-07-30T01:34:42;5.03;;;3.03;;
29500;SDS011;16450;50.288;10.966;2023-07-30T01:37:47;3.27;;;2.97;;
29500;SDS011;16450;50.288;10.966;2023-07-30T01:40:50;4.47;;;3.37;;
29500;SDS011;16450;50.288;10.966;2023-07-30T01:43:53;4.47;;;3.47;;
29500;SDS011;16450;50.288;10.966;2023-07-30T01:46:55;3.93;;;3.40;;
29500;SDS011;16450;50.288;10.966;2023-07-30T01:49:57;3.80;;;3.07;;
29500;SDS011;16450;50.288;10.966;2023-07-30T01:53:02;4.23;;;3.53;;
29500;SDS011;16450;50.288;10.966;2023-07-30T01:56:04;5.30;;;3.60;;
29500;SDS011;16450;50.288;10.966;2023-07-30T01:59:05;5.27;;;3.60;;
29500;SDS011;16450;50.288;10.966;2023-07-30T02:02:07;3.87;;;3.33;;
29500;SDS011;16450;50.288;10.966;2023-07-30T02:05:10;4.40;;;3.27;;
29500;SDS011;16450;50.288;10.966;2023-07-30T02:08:11;4.77;;;3.83;;
29500;SDS011;16450;50.288;10.966;2023-07-30T02:11:17;7.30;;;3.40;;
29500;SDS011;16450;50.288;10.966;2023-07-30T02:14:19;4.60;;;3.50;;
29500;SDS011;16450;50.288;10.966;2023-07-30T02:17:21;5.10;;;3.50;;
29500;SDS011;16450;50.288;10.966;2023-07-30T02:20:23;4.53;;;3.33;;
29500;SDS011;16450;50.288;10.966;2023-07-30T02:23:25;7.13;;;4.00;;
29500;SDS011;16450;50.288;10.966;2023-07-30T02:26:26;7.50;;;3.23;;
29500;SDS011;16450;50.288;10.966;2023-07-30T02:29:28;8.40;;;3.40;;
29500;SDS011;16450;50.288;10.966;2023-07-30T02:32:32;6.03;;;3.17;;
29500;SDS011;16450;50.288;10.966;2023-07-30T02:35:34;4.07;;;3.00;;
29500;SDS011;16450;50.288;10.966;2023-07-30T02:38:36;3.57;;;3.00;;
29500;SDS011;16450;50.288;10.966;2023-07-30T02:41:38;5.00;;;2.90;;
29500;SDS011;16450;50.288;10.966;2023-07-30T02:44:40;4.23;;;3.00;;
29500;SDS011;16450;50.288;10.966;2023-07-30T02:47:42;3.73;;;3.03;;
29500;SDS011;16450;50.288;10.966;2023-07-30T02:50:44;4.50;;;2.50;;
29500;SDS011;16450;50.288;10.966;2023-07-30T02:53:46;3.83;;;3.10;;
29500;SDS011;16450;50.288;10.966;2023-07-30T02:56:48;4.63;;;3.10;;
29500;SDS011;16450;50.288;10.966;2023-07-30T02:59:50;3.10;;;2.80;;
29500;SDS011;16450;50.288;10.966;2023-07-30T03:02:52;5.10;;;3.00;;
29500;SDS011;16450;50.288;10.966;2023-07-30T03:05:54;3.17;;;2.70;;
29500;SDS011;16450;50.288;10.966;2023-07-30T03:08:56;5.83;;;2.80;;
29500;SDS011;16450;50.288;10.966;2023-07-30T03:11:59;6.73;;;2.90;;
29500;SDS011;16450;50.288;10.966;2023-07-30T03:15:01;4.33;;;2.77;;
29500;SDS011;16450;50.288;10.966;2023-07-30T03:18:03;3.57;;;2.73;;
29500;SDS011;16450;50.288;10.966;2023-07-30T03:21:05;3.73;;;3.00;;
29500;SDS011;16450;50.288;10.966;2023-07-30T03:24:07;6.40;;;2.90;;
29500;SDS011;16450;50.288;10.966;2023-07-30T03:27:09;3.70;;;3.10;;
29500;SDS011;16450;50.288;10.966;2023-07-30T03:30:11;3.43;;;3.10;;
29500;SDS011;16450;50.288;10.966;2023-07-30T03:33:13;3.73;;;3.00;;
29500;SDS011;16450;50.288;10.966;2023-07-30T03:36:14;3.87;;;2.80;;
29500;SDS011;16450;50.288;10.966;2023-07-30T03:39:16;6.23;;;3.90;;
29500;SDS011;16450;50.288;10.966;2023-07-30T03:42:18;3.83;;;2.80;;
29500;SDS011;16450;50.288;10.966;2023-07-30T03:45:20;6.40;;;3.33;;
29500;SDS011;16450;50.288;10.966;2023-07-30T03:48:22;6.17;;;3.30;;
29500;SDS011;16450;50.288;10.966;2023-07-30T03:51:24;4.17;;;3.13;;
29500;SDS011;16450;50.288;10.966;2023-07-30T03:54:26;4.73;;;3.40;;
29500;SDS011;16450;50.288;10.966;2023-07-30T03:57:28;4.80;;;3.30;;
29500;SDS011;16450;50.288;10.966;2023-07-30T04:00:33;4.00;;;3.13;;
29500;SDS011;16450;50.288;10.966;2023-07-30T04:03:35;4.20;;;3.17;;
29500;SDS011;16450;50.288;10.966;2023-07-30T04:06:37;5.07;;;3.10;;
29500;SDS011;16450;50.288;10.966;2023-07-30T04:09:39;5.97;;;3.67;;
29500;SDS011;16450;50.288;10.966;2023-07-30T04:12:41;7.70;;;3.73;;
29500;SDS011;16450;50.288;10.966;2023-07-30T04:15:43;4.27;;;3.40;;
29500;SDS011;16450;50.288;10.966;2023-07-30T04:18:45;4.87;;;3.37;;
29500;SDS011;16450;50.288;10.966;2023-07-30T04:21:47;4.47;;;3.40;;
29500;SDS011;16450;50.288;10.966;2023-07-30T04:24:49;3.93;;;3.47;;
29500;SDS011;16450;50.288;10.966;2023-07-30T04:27:51;4.17;;;3.27;;
29500;SDS011;16450;50.288;10.966;2023-07-30T04:30:53;5.37;;;3.07;;
29500;SDS011;16450;50.288;10.966;2023-07-30T04:33:55;4.87;;;3.40;;
29500;SDS011;16450;50.288;10.966;2023-07-30T04:36:57;3.60;;;3.07;;
29500;SDS011;16450;50.288;10.966;2023-07-30T04:39:59;4.60;;;2.97;;
29500;SDS011;16450;50.288;10.966;2023-07-30T04:43:00;5.87;;;3.40;;
29500;SDS011;16450;50.288;10.966;2023-07-30T04:46:02;5.80;;;3.20;;
29500;SDS011;16450;50.288;10.966;2023-07-30T04:49:04;4.43;;;3.30;;
29500;SDS011;16450;50.288;10.966;2023-07-30T04:52:06;4.53;;;3.43;;
29500;SDS011;16450;50.288;10.966;2023-07-30T04:55:09;4.10;;;3.50;;
29500;SDS011;16450;50.288;10.966;2023-07-30T04:58:11;13.27;;;4.00;;
29500;SDS011;16450;50.288;10.966;2023-07-30T05:01:14;5.90;;;3.13;;
29500;SDS011;16450;50.288;10.966;2023-07-30T05:04:16;4.27;;;3.47;;
29500;SDS011;16450;50.288;10.966;2023-07-30T05:07:21;4.27;;;3.17;;
29500;SDS011;16450;50.288;10.966;2023-07-30T05:10:24;5.97;;;3.30;;
29500;SDS011;16450;50.288;10.966;2023-07-30T05:13:26;4.97;;;3.33;;
29500;SDS011;16450;50.288;10.966;2023-07-30T05:16:28;3.87;;;3.40;;
29500;SDS011;16450;50.288;10.966;2023-07-30T05:19:30;4.73;;;3.17;;
29500;SDS011;16450;50.288;10.966;2023-07-30T05:22:33;4.50;;;3.33;;
29500;SDS011;16450;50.288;10.966;2023-07-30T05:25:35;5.50;;;3.70;;
29500;SDS011;16450;50.288;10.966;2023-07-30T05:28:36;5.80;;;3.47;;
29500;SDS011;16450;50.288;10.966;2023-07-30T05:31:38;5.73;;;3.57;;
29500;SDS011;16450;50.288;10.966;2023-07-30T05:34:41;6.13;;;3.83;;
29500;SDS011;16450;50.288;10.966;2023-07-30T05:37:43;5.13;;;3.53;;
29500;SDS011;16450;50.288;10.966;2023-07-30T05:40:45;7.87;;;4.03;;
29500;SDS011;16450;50.288;10.966;2023-07-30T05:43:47;6.87;;;4.00;;
29500;SDS011;16450;50.288;10.966;2023-07-30T05:46:50;7.97;;;4.47;;
29500;SDS011;16450;50.288;10.966;2023-07-30T05:49:52;6.33;;;4.20;;
29500;SDS011;16450;50.288;10.966;2023-07-30T05:52:54;5.43;;;4.57;;
29500;SDS011;16450;50.288;10.966;2023-07-30T05:55:55;6.57;;;4.20;;
29500;SDS011;16450;50.288;10.966;2023-07-30T05:58:58;5.97;;;4.23;;
29500;SDS011;16450;50.288;10.966;2023-07-30T06:02:01;4.57;;;3.90;;
29500;SDS011;16450;50.288;10.966;2023-07-30T06:05:04;6.50;;;4.47;;
29500;SDS011;16450;50.288;10.966;2023-07-30T06:08:06;7.00;;;4.25;;
29500;SDS011;16450;50.288;10.966;2023-07-30T06:11:09;4.47;;;3.80;;
29500;SDS011;16450;50.288;10.966;2023-07-30T06:14:11;5.13;;;4.00;;
29500;SDS011;16450;50.288;10.966;2023-07-30T06:17:13;7.67;;;4.40;;
29500;SDS011;16450;50.288;10.966;2023-07-30T06:20:15;7.10;;;4.15;;
29500;SDS011;16450;50.288;10.966;2023-07-30T06:23:17;4.60;;;3.80;;
29500;SDS011;16450;50.288;10.966;2023-07-30T06:26:19;4.75;;;4.25;;
29500;SDS011;16450;50.288;10.966;2023-07-30T06:29:21;5.05;;;4.00;;
29500;SDS011;16450;50.288;10.966;2023-07-30T06:32:23;4.28;;;3.28;;
29500;SDS011;16450;50.288;10.966;2023-07-30T06:35:25;4.05;;;3.33;;
29500;SDS011;16450;50.288;10.966;2023-07-30T06:38:28;5.13;;;3.08;;
29500;SDS011;16450;50.288;10.966;2023-07-30T06:41:29;5.25;;;2.75;;
29500;SDS011;16450;50.288;10.966;2023-07-30T06:44:31;4.20;;;2.58;;
29500;SDS011;16450;50.288;10.966;2023-07-30T06:47:33;4.88;;;2.90;;
29500;SDS011;16450;50.288;10.966;2023-07-30T06:50:37;4.43;;;2.88;;
29500;SDS011;16450;50.288;10.966;2023-07-30T06:53:39;6.18;;;2.78;;
29500;SDS011;16450;50.288;10.966;2023-07-30T06:56:41;3.35;;;3.00;;
29500;SDS011;16450;50.288;10.966;2023-07-30T06:59:43;5.05;;;3.08;;
29500;SDS011;16450;50.288;10.966;2023-07-30T07:02:45;3.53;;;2.42;;
29500;SDS011;16450;50.288;10.966;2023-07-30T07:05:56;4.43;;;3.05;;
29500;SDS011;16450;50.288;10.966;2023-07-30T07:08:58;3.55;;;2.80;;
29500;SDS011;16450;50.288;10.966;2023-07-30T07:12:04;3.33;;;2.50;;
29500;SDS011;16450;50.288;10.966;2023-07-30T07:15:06;4.05;;;2.47;;
29500;SDS011;16450;50.288;10.966;2023-07-30T07:18:10;4.30;;;2.58;;
29500;SDS011;16450;50.288;10.966;2023-07-30T07:21:12;2.60;;;2.28;;
29500;SDS011;16450;50.288;10.966;2023-07-30T07:24:14;4.53;;;2.08;;
29500;SDS011;16450;50.288;10.966;2023-07-30T07:27:15;2.42;;;2.17;;
29500;SDS011;16450;50.288;10.966;2023-07-30T07:30:18;2.28;;;2.08;;
29500;SDS011;16450;50.288;10.966;2023-07-30T07:33:20;2.42;;;2.20;;
29500;SDS011;16450;50.288;10.966;2023-07-30T07:36:23;2.30;;;2.05;;
29500;SDS011;16450;50.288;10.966;2023-07-30T07:39:25;2.03;;;1.83;;
29500;SDS011;16450;50.288;10.966;2023-07-30T07:42:28;2.28;;;1.90;;
29500;SDS011;16450;50.288;10.966;2023-07-30T07:45:31;1.88;;;1.77;;
29500;SDS011;16450;50.288;10.966;2023-07-30T07:48:34;3.53;;;1.75;;
29500;SDS011;16450;50.288;10.966;2023-07-30T07:51:36;2.10;;;1.90;;
29500;SDS011;16450;50.288;10.966;2023-07-30T07:54:38;2.30;;;2.10;;
29500;SDS011;16450;50.288;10.966;2023-07-30T07:57:43;5.07;;;1.80;;
29500;SDS011;16450;50.288;10.966;2023-07-30T08:00:45;3.08;;;1.65;;
29500;SDS011;16450;50.288;10.966;2023-07-30T08:03:47;2.42;;;1.80;;
29500;SDS011;16450;50.288;10.966;2023-07-30T08:06:49;1.75;;;1.55;;
29500;SDS011;16450;50.288;10.966;2023-07-30T08:09:51;2.38;;;1.60;;
29500;SDS011;16450;50.288;10.966;2023-07-30T08:12:53;1.50;;;1.38;;
29500;SDS011;16450;50.288;10.966;2023-07-30T08:15:54;2.47;;;1.42;;
29500;SDS011;16450;50.288;10.966;2023-07-30T08:18:57;1.65;;;1.20;;
29500;SDS011;16450;50.288;10.966;2023-07-30T08:21:59;1.45;;;1.25;;
29500;SDS011;16450;50.288;10.966;2023-07-30T08:25:01;1.50;;;1.40;;
29500;SDS011;16450;50.288;10.966;2023-07-30T08:28:04;2.97;;;1.30;;
29500;SDS011;16450;50.288;10.966;2023-07-30T08:31:06;2.00;;;1.45;;
29500;SDS011;16450;50.288;10.966;2023-07-30T08:34:08;2.10;;;1.50;;
29500;SDS011;16450;50.288;10.966;2023-07-30T08:37:10;1.50;;;1.40;;
29500;SDS011;16450;50.288;10.966;2023-07-30T08:40:12;1.58;;;1.48;;
29500;SDS011;16450;50.288;10.966;2023-07-30T08:43:18;1.20;;;1.10;;
29500;SDS011;16450;50.288;10.966;2023-07-30T08:46:20;1.17;;;1.08;;
29500;SDS011;16450;50.288;10.966;2023-07-30T08:49:23;1.30;;;1.20;;
29500;SDS011;16450;50.288;10.966;2023-07-30T08:52:25;1.27;;;1.00;;
29500;SDS011;16450;50.288;10.966;2023-07-30T08:55:28;1.73;;;1.35;;
29500;SDS011;16450;50.288;10.966;2023-07-30T08:58:33;1.27;;;1.02;;
29500;SDS011;16450;50.288;10.966;2023-07-30T09:01:38;2.33;;;1.40;;
29500;SDS011;16450;50.288;10.966;2023-07-30T09:04:42;3.00;;;1.88;;
29500;SDS011;16450;50.288;10.966;2023-07-30T09:07:49;1.55;;;1.30;;
29500;SDS011;16450;50.288;10.966;2023-07-30T09:10:52;2.22;;;1.10;;
29500;SDS011;16450;50.288;10.966;2023-07-30T09:13:54;2.22;;;1.23;;
29500;SDS011;16450;50.288;10.966;2023-07-30T09:16:59;1.48;;;1.27;;
29500;SDS011;16450;50.288;10.966;2023-07-30T09:20:02;3.72;;;1.75;;
29500;SDS011;16450;50.288;10.966;2023-07-30T09:23:05;2.33;;;1.40;;
29500;SDS011;16450;50.288;10.966;2023-07-30T09:26:11;1.90;;;1.60;;
29500;SDS011;16450;50.288;10.966;2023-07-30T09:29:14;2.90;;;1.63;;
29500;SDS011;16450;50.288;10.966;2023-07-30T09:32:17;2.10;;;1.48;;
29500;SDS011;16450;50.288;10.966;2023-07-30T09:35:19;1.67;;;1.40;;
29500;SDS011;16450;50.288;10.966;2023-07-30T09:38:21;1.67;;;1.20;;
29500;SDS011;16450;50.288;10.966;2023-07-30T09:41:23;1.70;;;1.35;;
29500;SDS011;16450;50.288;10.966;2023-07-30T09:44:25;1.83;;;1.27;;
29500;SDS011;16450;50.288;10.966;2023-07-30T09:47:30;1.88;;;1.40;;
29500;SDS011;16450;50.288;10.966;2023-07-30T09:50:36;1.42;;;1.20;;
29500;SDS011;16450;50.288;10.966;2023-07-30T09:53:38;1.83;;;1.10;;
29500;SDS011;16450;50.288;10.966;2023-07-30T09:56:41;1.63;;;1.17;;
29500;SDS011;16450;50.288;10.966;2023-07-30T09:59:44;1.98;;;1.45;;
29500;SDS011;16450;50.288;10.966;2023-07-30T10:02:46;3.08;;;1.40;;
29500;SDS011;16450;50.288;10.966;2023-07-30T10:05:50;1.25;;;1.13;;
29500;SDS011;16450;50.288;10.966;2023-07-30T10:08:54;1.35;;;1.10;;
29500;SDS011;16450;50.288;10.966;2023-07-30T10:12:00;3.72;;;1.33;;
29500;SDS011;16450;50.288;10.966;2023-07-30T10:15:05;3.33;;;1.10;;
29500;SDS011;16450;50.288;10.966;2023-07-30T10:18:08;1.15;;;1.05;;
29500;SDS011;16450;50.288;10.966;2023-07-30T10:21:10;2.03;;;1.00;;
29500;SDS011;16450;50.288;10.966;2023-07-30T10:24:24;2.40;;;1.20;;
29500;SDS011;16450;50.288;10.966;2023-07-30T10:27:35;1.52;;;1.10;;
29500;SDS011;16450;50.288;10.966;2023-07-30T10:30:39;2.05;;;1.15;;
29500;SDS011;16450;50.288;10.966;2023-07-30T10:36:54;2.55;;;1.30;;
29500;SDS011;16450;50.288;10.966;2023-07-30T10:39:57;1.20;;;1.10;;
29500;SDS011;16450;50.288;10.966;2023-07-30T10:42:59;1.42;;;1.30;;
29500;SDS011;16450;50.288;10.966;2023-07-30T10:46:00;1.30;;;0.98;;
29500;SDS011;16450;50.288;10.966;2023-07-30T10:49:03;1.63;;;1.17;;
29500;SDS011;16450;50.288;10.966;2023-07-30T10:52:06;1.40;;;1.25;;
29500;SDS011;16450;50.288;10.966;2023-07-30T10:55:08;2.15;;;1.13;;
29500;SDS011;16450;50.288;10.966;2023-07-30T10:58:10;1.40;;;1.00;;
29500;SDS011;16450;50.288;10.966;2023-07-30T11:01:13;1.95;;;1.00;;
29500;SDS011;16450;50.288;10.966;2023-07-30T11:04:19;2.05;;;1.15;;
29500;SDS011;16450;50.288;10.966;2023-07-30T11:07:22;1.33;;;1.20;;
29500;SDS011;16450;50.288;10.966;2023-07-30T11:10:24;2.75;;;1.10;;
29500;SDS011;16450;50.288;10.966;2023-07-30T11:13:26;1.17;;;0.93;;
29500;SDS011;16450;50.288;10.966;2023-07-30T11:16:28;5.28;;;1.17;;
29500;SDS011;16450;50.288;10.966;2023-07-30T11:19:30;2.85;;;1.33;;
29500;SDS011;16450;50.288;10.966;2023-07-30T11:22:34;3.50;;;1.25;;
29500;SDS011;16450;50.288;10.966;2023-07-30T11:25:37;3.22;;;1.40;;
29500;SDS011;16450;50.288;10.966;2023-07-30T11:28:39;5.65;;;1.67;;
29500;SDS011;16450;50.288;10.966;2023-07-30T11:31:43;3.20;;;1.60;;
29500;SDS011;16450;50.288;10.966;2023-07-30T11:34:45;7.05;;;2.17;;
29500;SDS011;16450;50.288;10.966;2023-07-30T11:37:47;2.47;;;1.50;;
29500;SDS011;16450;50.288;10.966;2023-07-30T11:40:50;3.43;;;1.60;;
29500;SDS011;16450;50.288;10.966;2023-07-30T11:43:54;4.00;;;1.70;;
29500;SDS011;16450;50.288;10.966;2023-07-30T11:46:56;3.30;;;1.67;;
29500;SDS011;16450;50.288;10.966;2023-07-30T11:49:58;2.50;;;1.23;;
29500;SDS011;16450;50.288;10.966;2023-07-30T11:53:00;3.20;;;1.33;;
29500;SDS011;16450;50.288;10.966;2023-07-30T11:56:02;1.60;;;1.20;;
29500;SDS011;16450;50.288;10.966;2023-07-30T11:59:05;2.28;;;1.52;;
29500;SDS011;16450;50.288;10.966;2023-07-30T12:02:08;1.95;;;1.25;;
29500;SDS011;16450;50.288;10.966;2023-07-30T12:05:11;2.42;;;1.40;;
29500;SDS011;16450;50.288;10.966;2023-07-30T12:08:13;1.73;;;1.25;;
29500;SDS011;16450;50.288;10.966;2023-07-30T12:11:18;4.00;;;1.57;;
29500;SDS011;16450;50.288;10.966;2023-07-30T12:14:24;1.47;;;1.30;;
29500;SDS011;16450;50.288;10.966;2023-07-30T12:17:32;1.48;;;1.20;;
29500;SDS011;16450;50.288;10.966;2023-07-30T12:20:34;2.00;;;1.40;;
29500;SDS011;16450;50.288;10.966;2023-07-30T12:23:37;1.40;;;1.27;;
29500;SDS011;16450;50.288;10.966;2023-07-30T12:26:39;3.45;;;1.55;;
29500;SDS011;16450;50.288;10.966;2023-07-30T12:29:42;2.58;;;1.60;;
29500;SDS011;16450;50.288;10.966;2023-07-30T12:32:44;1.25;;;1.15;;
29500;SDS011;16450;50.288;10.966;2023-07-30T12:35:46;3.45;;;1.70;;
29500;SDS011;16450;50.288;10.966;2023-07-30T12:38:51;2.20;;;1.65;;
29500;SDS011;16450;50.288;10.966;2023-07-30T12:41:55;1.90;;;1.45;;
29500;SDS011;16450;50.288;10.966;2023-07-30T12:44:56;3.58;;;1.52;;
29500;SDS011;16450;50.288;10.966;2023-07-30T12:48:00;1.60;;;1.50;;
29500;SDS011;16450;50.288;10.966;2023-07-30T12:51:02;2.20;;;1.60;;
29500;SDS011;16450;50.288;10.966;2023-07-30T12:54:04;1.52;;;1.30;;
29500;SDS011;16450;50.288;10.966;2023-07-30T12:57:06;5.20;;;1.10;;
29500;SDS011;16450;50.288;10.966;2023-07-30T13:00:09;1.42;;;1.10;;
29500;SDS011;16450;50.288;10.966;2023-07-30T13:03:11;1.70;;;1.00;;
29500;SDS011;16450;50.288;10.966;2023-07-30T13:06:13;2.63;;;1.30;;
29500;SDS011;16450;50.288;10.966;2023-07-30T13:09:15;1.47;;;1.10;;
29500;SDS011;16450;50.288;10.966;2023-07-30T13:12:17;1.10;;;1.00;;
29500;SDS011;16450;50.288;10.966;2023-07-30T13:15:19;1.37;;;1.10;;
29500;SDS011;16450;50.288;10.966;2023-07-30T13:18:21;1.80;;;1.30;;
29500;SDS011;16450;50.288;10.966;2023-07-30T13:21:23;2.20;;;1.50;;
29500;SDS011;16450;50.288;10.966;2023-07-30T13:24:25;1.58;;;1.20;;
29500;SDS011;16450;50.288;10.966;2023-07-30T13:27:28;1.33;;;1.10;;
29500;SDS011;16450;50.288;10.966;2023-07-30T13:30:30;4.00;;;1.13;;
29500;SDS011;16450;50.288;10.966;2023-07-30T13:33:33;2.72;;;1.27;;
29500;SDS011;16450;50.288;10.966;2023-07-30T13:36:35;1.63;;;1.10;;
29500;SDS011;16450;50.288;10.966;2023-07-30T13:39:38;2.47;;;1.08;;
29500;SDS011;16450;50.288;10.966;2023-07-30T13:42:40;1.80;;;1.10;;
29500;SDS011;16450;50.288;10.966;2023-07-30T13:45:42;3.08;;;1.00;;
29500;SDS011;16450;50.288;10.966;2023-07-30T13:48:44;2.60;;;1.00;;
29500;SDS011;16450;50.288;10.966;2023-07-30T13:51:46;5.03;;;1.07;;
29500;SDS011;16450;50.288;10.966;2023-07-30T13:54:48;3.73;;;1.40;;
29500;SDS011;16450;50.288;10.966;2023-07-30T13:57:50;1.90;;;0.93;;
29500;SDS011;16450;50.288;10.966;2023-07-30T14:00:53;2.80;;;0.93;;
29500;SDS011;16450;50.288;10.966;2023-07-30T14:03:56;2.23;;;1.03;;
29500;SDS011;16450;50.288;10.966;2023-07-30T14:06:58;3.30;;;1.00;;
29500;SDS011;16450;50.288;10.966;2023-07-30T14:09:59;2.67;;;1.10;;
29500;SDS011;16450;50.288;10.966;2023-07-30T14:13:01;2.77;;;1.20;;
29500;SDS011;16450;50.288;10.966;2023-07-30T14:16:03;2.30;;;1.20;;
29500;SDS011;16450;50.288;10.966;2023-07-30T14:19:05;2.00;;;1.00;;
29500;SDS011;16450;50.288;10.966;2023-07-30T14:22:10;3.33;;;1.20;;
29500;SDS011;16450;50.288;10.966;2023-07-30T14:25:12;3.17;;;1.03;;
29500;SDS011;16450;50.288;10.966;2023-07-30T14:28:14;2.90;;;1.00;;
29500;SDS011;16450;50.288;10.966;2023-07-30T14:31:16;1.60;;;1.00;;
29500;SDS011;16450;50.288;10.966;2023-07-30T14:34:18;1.98;;;1.00;;
29500;SDS011;16450;50.288;10.966;2023-07-30T14:37:20;2.72;;;1.10;;
29500;SDS011;16450;50.288;10.966;2023-07-30T14:40:22;3.15;;;1.20;;
29500;SDS011;16450;50.288;10.966;2023-07-30T14:43:24;3.35;;;1.05;;
29500;SDS011;16450;50.288;10.966;2023-07-30T14:46:26;2.22;;;0.90;;
29500;SDS011;16450;50.288;10.966;2023-07-30T14:49:27;1.75;;;1.00;;
29500;SDS011;16450;50.288;10.966;2023-07-30T14:52:29;2.60;;;0.90;;
29500;SDS011;16450;50.288;10.966;2023-07-30T14:55:32;2.75;;;1.02;;
29500;SDS011;16450;50.288;10.966;2023-07-30T14:58:34;2.58;;;1.00;;
29500;SDS011;16450;50.288;10.966;2023-07-30T15:01:36;3.33;;;0.98;;
29500;SDS011;16450;50.288;10.966;2023-07-30T15:04:38;1.75;;;1.05;;
29500;SDS011;16450;50.288;10.966;2023-07-30T15:07:40;1.48;;;1.10;;
29500;SDS011;16450;50.288;10.966;2023-07-30T15:10:43;1.73;;;1.20;;
29500;SDS011;16450;50.288;10.966;2023-07-30T15:13:45;2.10;;;1.00;;
29500;SDS011;16450;50.288;10.966;2023-07-30T15:16:47;3.40;;;1.30;;
29500;SDS011;16450;50.288;10.966;2023-07-30T15:19:49;2.88;;;1.20;;
29500;SDS011;16450;50.288;10.966;2023-07-30T15:22:52;1.75;;;0.98;;
29500;SDS011;16450;50.288;10.966;2023-07-30T15:25:54;4.28;;;1.30;;
29500;SDS011;16450;50.288;10.966;2023-07-30T15:28:56;3.60;;;1.55;;
29500;SDS011;16450;50.288;10.966;2023-07-30T15:31:58;3.35;;;1.33;;
29500;SDS011;16450;50.288;10.966;2023-07-30T15:35:00;1.10;;;1.00;;
29500;SDS011;16450;50.288;10.966;2023-07-30T15:38:06;2.60;;;1.20;;
29500;SDS011;16450;50.288;10.966;2023-07-30T15:41:08;2.33;;;1.20;;
29500;SDS011;16450;50.288;10.966;2023-07-30T15:44:10;2.53;;;1.30;;
29500;SDS011;16450;50.288;10.966;2023-07-30T15:47:12;3.65;;;1.27;;
29500;SDS011;16450;50.288;10.966;2023-07-30T15:50:14;3.13;;;1.20;;
29500;SDS011;16450;50.288;10.966;2023-07-30T15:53:16;2.58;;;0.90;;
29500;SDS011;16450;50.288;10.966;2023-07-30T15:56:18;4.78;;;1.40;;
29500;SDS011;16450;50.288;10.966;2023-07-30T15:59:20;4.65;;;1.45;;
29500;SDS011;16450;50.288;10.966;2023-07-30T16:02:22;4.90;;;1.63;;
29500;SDS011;16450;50.288;10.966;2023-07-30T16:05:24;2.75;;;1.50;;
29500;SDS011;16450;50.288;10.966;2023-07-30T16:08:26;4.78;;;1.40;;
29500;SDS011;16450;50.288;10.966;2023-07-30T16:11:28;2.78;;;1.30;;
29500;SDS011;16450;50.288;10.966;2023-07-30T16:14:30;5.03;;;1.20;;
29500;SDS011;16450;50.288;10.966;2023-07-30T16:17:32;6.45;;;1.60;;
29500;SDS011;16450;50.288;10.966;2023-07-30T16:20:34;4.38;;;1.40;;
29500;SDS011;16450;50.288;10.966;2023-07-30T16:23:36;6.13;;;1.20;;
29500;SDS011;16450;50.288;10.966;2023-07-30T16:26:38;3.75;;;1.40;;
29500;SDS011;16450;50.288;10.966;2023-07-30T16:29:40;3.83;;;1.40;;
29500;SDS011;16450;50.288;10.966;2023-07-30T16:32:42;4.65;;;1.20;;
29500;SDS011;16450;50.288;10.966;2023-07-30T16:35:46;3.15;;;1.30;;
29500;SDS011;16450;50.288;10.966;2023-07-30T16:38:48;5.87;;;1.37;;
29500;SDS011;16450;50.288;10.966;2023-07-30T16:41:50;3.35;;;1.40;;
29500;SDS011;16450;50.288;10.966;2023-07-30T16:44:53;2.13;;;1.08;;
29500;SDS011;16450;50.288;10.966;2023-07-30T16:47:56;3.13;;;1.27;;
29500;SDS011;16450;50.288;10.966;2023-07-30T16:50:58;2.50;;;1.20;;
29500;SDS011;16450;50.288;10.966;2023-07-30T16:54:00;3.60;;;1.38;;
29500;SDS011;16450;50.288;10.966;2023-07-30T16:57:02;5.05;;;1.08;;
29500;SDS011;16450;50.288;10.966;2023-07-30T17:00:04;4.13;;;1.47;;
29500;SDS011;16450;50.288;10.966;2023-07-30T17:03:07;2.40;;;1.13;;
29500;SDS011;16450;50.288;10.966;2023-07-30T17:06:09;3.10;;;1.13;;
29500;SDS011;16450;50.288;10.966;2023-07-30T17:09:11;4.70;;;1.30;;
29500;SDS011;16450;50.288;10.966;2023-07-30T17:12:13;4.90;;;1.50;;
29500;SDS011;16450;50.288;10.966;2023-07-30T17:15:15;5.67;;;2.30;;
29500;SDS011;16450;50.288;10.966;2023-07-30T17:18:17;3.97;;;1.50;;
29500;SDS011;16450;50.288;10.966;2023-07-30T17:21:19;3.20;;;1.70;;
29500;SDS011;16450;50.288;10.966;2023-07-30T17:24:22;5.37;;;1.80;;
29500;SDS011;16450;50.288;10.966;2023-07-30T17:27:24;3.00;;;1.53;;
29500;SDS011;16450;50.288;10.966;2023-07-30T17:30:26;4.47;;;1.57;;
29500;SDS011;16450;50.288;10.966;2023-07-30T17:33:28;3.63;;;1.53;;
29500;SDS011;16450;50.288;10.966;2023-07-30T17:36:35;5.10;;;1.17;;
29500;SDS011;16450;50.288;10.966;2023-07-30T17:39:38;5.63;;;1.37;;
29500;SDS011;16450;50.288;10.966;2023-07-30T17:42:40;3.80;;;1.20;;
29500;SDS011;16450;50.288;10.966;2023-07-30T17:45:42;3.00;;;1.30;;
29500;SDS011;16450;50.288;10.966;2023-07-30T17:48:44;2.67;;;1.20;;
29500;SDS011;16450;50.288;10.966;2023-07-30T17:51:49;5.37;;;1.17;;
29500;SDS011;16450;50.288;10.966;2023-07-30T17:54:51;2.97;;;1.00;;
29500;SDS011;16450;50.288;10.966;2023-07-30T17:57:53;6.27;;;1.60;;
29500;SDS011;16450;50.288;10.966;2023-07-30T18:00:55;4.53;;;1.20;;
29500;SDS011;16450;50.288;10.966;2023-07-30T18:03:57;2.77;;;1.30;;